createdAt,value
2024-02-22T00:10:20.384Z,6.9
2024-02-22T00:26:02.725Z,8.3
2024-02-22T00:41:45.920Z,7.2
2024-02-22T00:57:28.792Z,7.3
2024-02-22T01:13:11.778Z,6.2
2024-02-22T01:28:53.999Z,6.1
2024-02-22T01:44:36.470Z,6.6
2024-02-22T02:00:19.670Z,5.9
2024-02-22T02:16:02.038Z,5.4
2024-02-22T02:31:44.857Z,5.8
2024-02-22T02:47:28.022Z,4
2024-02-22T03:03:10.609Z,5.9
2024-02-22T03:18:53.131Z,2.9
2024-02-22T03:34:36.290Z,3.9
2024-02-22T03:50:19.087Z,3.2
2024-02-22T04:06:01.863Z,3.8
2024-02-22T04:21:44.350Z,3.9
2024-02-22T04:37:27.398Z,2.8
2024-02-22T04:53:09.704Z,3.9
2024-02-22T05:08:52.418Z,3.6
2024-02-22T05:24:35.031Z,4.8
2024-02-22T05:40:17.340Z,3.4
2024-02-22T05:56:00.378Z,3.9
2024-02-22T06:11:43.294Z,4.1
2024-02-22T06:27:25.931Z,3.2
2024-02-22T06:43:08.854Z,4.69
2024-02-22T06:58:51.052Z,2.8
2024-02-22T07:14:33.983Z,3.2
2024-02-22T07:30:16.598Z,5.5
2024-02-22T07:45:58.964Z,5.4
2024-02-22T08:01:41.714Z,4.8
2024-02-22T08:17:24.472Z,5.4
2024-02-22T08:33:07.046Z,7
2024-02-22T08:48:49.793Z,6.3
2024-02-22T09:04:32.616Z,8.1
2024-02-22T09:20:15.356Z,9.89
2024-02-22T09:35:58.005Z,6.9
2024-02-22T09:51:40.625Z,6.7
2024-02-22T10:07:23.243Z,9
2024-02-22T10:23:05.685Z,5.4
2024-02-22T10:38:48.042Z,4.1
2024-02-22T10:54:30.817Z,5.4
2024-02-22T11:10:13.207Z,3.7
2024-02-22T11:25:56.404Z,4.6
2024-02-22T11:41:38.893Z,3.6
2024-02-22T11:57:21.567Z,3.1
2024-02-22T12:13:04.663Z,2.5
2024-02-22T12:28:47.165Z,5.2
2024-02-22T12:29:34.487Z,4.1
2024-02-22T12:45:16.865Z,3
2024-02-22T13:00:59.667Z,3.5
2024-02-22T13:16:42.104Z,3.5
2024-02-22T13:32:24.603Z,4.19
2024-02-22T13:48:07.402Z,3.6
2024-02-22T14:03:50.720Z,3.9
2024-02-22T14:19:33.068Z,3.3
2024-02-22T14:35:16.131Z,2.7
2024-02-22T14:50:58.405Z,2.09
2024-02-22T15:06:40.852Z,1.5
2024-02-22T15:22:23.065Z,2.09
2024-02-22T15:38:05.359Z,1.9
2024-02-22T15:53:48.252Z,2.4
2024-02-22T16:09:30.437Z,7.3
2024-02-22T16:25:13.175Z,3
2024-02-22T16:40:55.943Z,3
2024-02-22T16:56:38.633Z,2.4
2024-02-22T17:12:21.474Z,2.8
2024-02-22T17:28:03.713Z,3.1
2024-02-22T17:43:46.668Z,5.3
2024-02-22T17:59:28.888Z,2.7
2024-02-22T18:15:11.684Z,6.4
2024-02-22T18:30:54.784Z,3.4
2024-02-22T18:46:37.657Z,3.7
2024-02-22T19:02:20.806Z,3.3
2024-02-22T19:18:03.138Z,2.4
2024-02-22T19:33:46.066Z,2.3
2024-02-22T19:49:29.183Z,2.3
2024-02-22T20:05:11.949Z,2.7
2024-02-22T20:20:54.662Z,3
2024-02-22T20:36:37.795Z,2.8
2024-02-22T20:52:20.134Z,2.6
2024-02-22T21:08:03.178Z,2.3
2024-02-22T21:23:45.971Z,2.9
2024-02-22T21:39:28.443Z,5
2024-02-22T21:55:11.093Z,3.3
2024-02-22T22:10:53.835Z,2.3
2024-02-22T22:26:36.220Z,1.9
2024-02-22T22:42:18.739Z,2.09
2024-02-22T22:58:01.767Z,1.7
2024-02-22T23:13:44.026Z,3.8
2024-02-22T23:29:27.163Z,1.9
2024-02-22T23:45:09.668Z,2.3
